Time;durP1;ratioP1;P1;durP2;ratioP2;P2;SDS_P1;SDS_P2;PMS_P1;PMS_P2;Temp;Humidity;BMP_temperature;BMP_pressure;BME280_temperature;BME280_humidity;BME280_pressure;Samples;Min_cycle;Max_cycle;Signal;HPM_P1;HPM_P2
2022/10/19 00:01:46;;;;;;;8.48;4.78;;;;;;;;;;5114662;28;20044;-69
2022/10/19 00:04:16;;;;;;;8.02;4.20;;;;;;;;;;5079508;28;20055;-69
2022/10/19 00:06:46;;;;;;;8.82;4.20;;;;;;;;;;5114481;28;20055;-70
2022/10/19 00:09:19;;;;;;;10.02;4.43;;;;;;;;;;5114264;28;20491;-69
2022/10/19 00:11:50;;;;;;;8.70;3.60;;;;;;;;;;5046407;28;20050;-69
2022/10/19 00:14:23;;;;;;;8.63;3.85;;;;;;;;;;5038000;28;20123;-69
2022/10/19 00:16:54;;;;;;;12.20;4.20;;;;;;;;;;5037908;28;20052;-68
2022/10/19 00:19:27;;;;;;;10.57;4.18;;;;;;;;;;5071259;28;20048;-70
2022/10/19 00:21:57;;;;;;;9.27;4.07;;;;;;;;;;5038395;28;20052;-69
2022/10/19 00:24:27;;;;;;;12.10;4.32;;;;;;;;;;5071198;28;20550;-69
2022/10/19 00:26:57;;;;;;;10.73;4.80;;;;;;;;;;5071100;28;20052;-68
2022/10/19 00:29:27;;;;;;;10.77;4.10;;;;;;;;;;5037812;28;20057;-69
2022/10/19 00:31:57;;;;;;;9.32;4.28;;;;;;;;;;5070946;28;20083;-68
2022/10/19 00:34:27;;;;;;;12.80;5.03;;;;;;;;;;5070867;28;20057;-68
2022/10/19 00:36:57;;;;;;;10.73;4.78;;;;;;;;;;5070947;28;20048;-69
2022/10/19 00:39:27;;;;;;;13.18;5.10;;;;;;;;;;5070735;28;20550;-68
2022/10/19 00:41:57;;;;;;;11.50;5.38;;;;;;;;;;5070973;28;20048;-68
2022/10/19 00:44:30;;;;;;;10.25;4.53;;;;;;;;;;5074730;28;20055;-68
2022/10/19 00:47:06;;;;;;;13.30;4.95;;;;;;;;;;5113839;28;20395;-68
2022/10/19 00:49:41;;;;;;;10.45;3.78;;;;;;;;;;5112716;28;20047;-69
2022/10/19 00:52:15;;;;;;;9.55;4.32;;;;;;;;;;5113661;28;20047;-68
2022/10/19 00:54:48;;;;;;;7.82;3.50;;;;;;;;;;5112385;28;20051;-68
2022/10/19 00:57:19;;;;;;;9.27;4.50;;;;;;;;;;5077849;28;20526;-69
2022/10/19 00:59:50;;;;;;;8.40;4.38;;;;;;;;;;5113319;28;20433;-68
2022/10/19 01:02:20;;;;;;;10.15;5.68;;;;;;;;;;5113459;28;20054;-68
2022/10/19 01:04:52;;;;;;;11.43;4.70;;;;;;;;;;5077970;28;20063;-68
2022/10/19 01:07:25;;;;;;;10.40;4.28;;;;;;;;;;5113191;28;20048;-69
2022/10/19 01:09:56;;;;;;;14.85;6.90;;;;;;;;;;5053187;28;20052;-68
2022/10/19 01:12:46;;;;;;;22.80;12.27;;;;;;;;;;5020841;28;20048;-68
2022/10/19 01:15:39;;;;;;;14.05;5.57;;;;;;;;;;5070119;28;20079;-68
2022/10/19 01:18:24;;;;;;;10.18;5.97;;;;;;;;;;4990836;28;20065;-69
2022/10/19 01:21:34;;;;;;;11.98;5.15;;;;;;;;;;4990867;28;20061;-68
2022/10/19 01:24:26;;;;;;;12.07;4.45;;;;;;;;;;4951992;29;20432;-68
2022/10/19 01:27:27;;;;;;;8.75;4.30;;;;;;;;;;4920839;29;20063;-68
2022/10/19 01:30:18;;;;;;;10.60;4.07;;;;;;;;;;4951699;29;20051;-69
2022/10/19 01:33:13;;;;;;;8.95;4.50;;;;;;;;;;4951906;29;20059;-68
2022/10/19 01:35:55;;;;;;;9.80;4.15;;;;;;;;;;4926033;29;20196;-68
2022/10/19 01:38:45;;;;;;;8.57;4.32;;;;;;;;;;4951838;29;20581;-67
2022/10/19 01:41:40;;;;;;;10.65;4.60;;;;;;;;;;4951719;29;20063;-68
2022/10/19 01:44:22;;;;;;;9.77;4.55;;;;;;;;;;4904267;29;20051;-68
2022/10/19 01:47:05;;;;;;;8.45;4.00;;;;;;;;;;4963833;28;20065;-68
2022/10/19 01:49:43;;;;;;;11.07;4.35;;;;;;;;;;4993236;28;20058;-67
2022/10/19 01:52:18;;;;;;;9.75;5.65;;;;;;;;;;5010022;28;20456;-67
2022/10/19 01:54:52;;;;;;;11.10;4.82;;;;;;;;;;5027070;28;20056;-67
2022/10/19 01:57:51;;;;;;;10.35;4.78;;;;;;;;;;5036118;28;20048;-67
2022/10/19 02:00:23;;;;;;;13.32;4.40;;;;;;;;;;5021754;28;20504;-66
2022/10/19 02:02:54;;;;;;;10.35;4.43;;;;;;;;;;5000152;28;20057;-66
2022/10/19 02:05:29;;;;;;;9.95;4.80;;;;;;;;;;5048831;28;20055;-66
2022/10/19 02:08:04;;;;;;;12.57;4.97;;;;;;;;;;5033333;28;20071;-66
2022/10/19 02:10:37;;;;;;;10.15;4.60;;;;;;;;;;5000051;28;20532;-66
2022/10/19 02:13:10;;;;;;;13.02;5.22;;;;;;;;;;5049302;28;20041;-66
2022/10/19 02:15:46;;;;;;;10.80;4.90;;;;;;;;;;5049318;28;20053;-67
2022/10/19 02:18:22;;;;;;;13.55;5.25;;;;;;;;;;5016134;28;20480;-67
2022/10/19 02:20:53;;;;;;;14.50;4.75;;;;;;;;;;5049328;28;20578;-67
2022/10/19 02:23:26;;;;;;;17.08;4.80;;;;;;;;;;5049158;28;20493;-66
2022/10/19 02:25:58;;;;;;;16.90;4.95;;;;;;;;;;5049448;28;20064;-67
2022/10/19 02:28:30;;;;;;;16.52;5.03;;;;;;;;;;5049054;28;20040;-67
2022/10/19 02:31:01;;;;;;;18.02;4.60;;;;;;;;;;4999819;28;20082;-66
2022/10/19 02:33:31;;;;;;;16.80;4.10;;;;;;;;;;5015879;28;20053;-66
2022/10/19 02:36:02;;;;;;;13.63;4.63;;;;;;;;;;5049618;28;20068;-66
2022/10/19 02:38:32;;;;;;;11.35;4.32;;;;;;;;;;5048843;28;20065;-66
2022/10/19 02:41:19;;;;;;;12.32;4.80;;;;;;;;;;5032313;28;20056;-66
2022/10/19 02:43:56;;;;;;;10.25;4.13;;;;;;;;;;5082178;28;20056;-67
2022/10/19 02:46:38;;;;;;;12.75;4.00;;;;;;;;;;5089387;28;20070;-66
2022/10/19 02:49:09;;;;;;;12.07;4.57;;;;;;;;;;5055563;28;20048;-66
2022/10/19 02:51:55;;;;;;;11.02;4.90;;;;;;;;;;5038980;28;20043;-66
2022/10/19 02:54:26;;;;;;;13.00;4.57;;;;;;;;;;5089333;28;20047;-66
2022/10/19 02:56:56;;;;;;;10.77;4.10;;;;;;;;;;5007287;28;20431;-66
2022/10/19 02:59:26;;;;;;;10.18;4.30;;;;;;;;;;5089312;28;20059;-66
2022/10/19 03:01:56;;;;;;;11.65;4.50;;;;;;;;;;5048458;28;20531;-66
2022/10/19 03:04:26;;;;;;;9.27;3.83;;;;;;;;;;5048963;28;20087;-66
2022/10/19 03:06:56;;;;;;;11.60;3.72;;;;;;;;;;5048476;28;20668;-66
2022/10/19 03:09:26;;;;;;;8.32;4.15;;;;;;;;;;5048822;28;20591;-67
2022/10/19 03:11:56;;;;;;;12.65;4.15;;;;;;;;;;5015675;28;20072;-67
2022/10/19 03:14:26;;;;;;;10.85;3.92;;;;;;;;;;5051509;28;20060;-67
2022/10/19 03:16:55;;;;;;;8.43;3.88;;;;;;;;;;5086051;28;20060;-66
2022/10/19 03:19:25;;;;;;;7.72;3.75;;;;;;;;;;5092562;28;20063;-66
2022/10/19 03:21:55;;;;;;;7.70;3.65;;;;;;;;;;5092748;28;20427;-67
2022/10/19 03:24:25;;;;;;;11.65;4.10;;;;;;;;;;5025945;28;20510;-67
2022/10/19 03:26:55;;;;;;;7.60;3.95;;;;;;;;;;5059663;28;20059;-66
2022/10/19 03:29:25;;;;;;;8.10;3.75;;;;;;;;;;5058838;28;20053;-67
2022/10/19 03:31:54;;;;;;;11.48;3.60;;;;;;;;;;5041964;28;20059;-68
2022/10/19 03:34:25;;;;;;;10.20;3.65;;;;;;;;;;5092366;28;20060;-68
2022/10/19 03:36:55;;;;;;;7.28;3.53;;;;;;;;;;5015336;28;20049;-67
2022/10/19 03:39:25;;;;;;;8.70;3.80;;;;;;;;;;5041041;28;20060;-67
2022/10/19 03:41:55;;;;;;;8.70;3.47;;;;;;;;;;5052031;28;20064;-67
2022/10/19 03:44:26;;;;;;;8.02;3.33;;;;;;;;;;5060871;28;20500;-67
2022/10/19 03:46:55;;;;;;;6.78;3.00;;;;;;;;;;5022000;28;20049;-67
2022/10/19 03:49:25;;;;;;;7.38;2.88;;;;;;;;;;5071934;28;20056;-67
2022/10/19 03:51:55;;;;;;;11.95;3.08;;;;;;;;;;5051494;28;20056;-66
2022/10/19 03:54:25;;;;;;;6.35;2.85;;;;;;;;;;5051763;28;20049;-67
2022/10/19 03:56:55;;;;;;;10.98;2.97;;;;;;;;;;5052000;28;20068;-67
2022/10/19 03:59:25;;;;;;;10.27;2.85;;;;;;;;;;5034974;28;20617;-66
2022/10/19 04:01:54;;;;;;;8.32;2.88;;;;;;;;;;5052057;28;20057;-67
2022/10/19 04:04:25;;;;;;;6.45;3.38;;;;;;;;;;5001992;28;20443;-67
2022/10/19 04:06:55;;;;;;;8.65;2.53;;;;;;;;;;5051274;28;20061;-68
2022/10/19 04:09:25;;;;;;;6.03;2.70;;;;;;;;;;5034786;28;20671;-67
2022/10/19 04:11:55;;;;;;;11.63;3.03;;;;;;;;;;5034671;28;20057;-67
2022/10/19 04:14:25;;;;;;;5.75;3.03;;;;;;;;;;5050184;28;20043;-67
2022/10/19 04:17:07;;;;;;;15.15;3.30;;;;;;;;;;5077813;28;20055;-67
2022/10/19 04:19:37;;;;;;;10.15;2.83;;;;;;;;;;5091337;28;20510;-67
2022/10/19 04:22:06;;;;;;;9.55;2.97;;;;;;;;;;5091583;28;20164;-67
2022/10/19 04:24:36;;;;;;;5.68;2.63;;;;;;;;;;5091412;28;20411;-66
2022/10/19 04:27:07;;;;;;;5.15;2.60;;;;;;;;;;5091562;28;20531;-67
2022/10/19 04:29:37;;;;;;;11.55;2.67;;;;;;;;;;5057258;28;20059;-67
2022/10/19 04:32:07;;;;;;;8.00;2.33;;;;;;;;;;5091329;28;20044;-66
2022/10/19 04:34:36;;;;;;;14.57;2.47;;;;;;;;;;5041043;28;20056;-66
2022/10/19 04:37:07;;;;;;;10.70;3.08;;;;;;;;;;5091149;28;20059;-67
2022/10/19 04:39:39;;;;;;;8.10;2.53;;;;;;;;;;5091400;28;20059;-66
2022/10/19 04:42:10;;;;;;;11.20;3.08;;;;;;;;;;5091092;28;20086;-66
2022/10/19 04:44:40;;;;;;;7.82;2.75;;;;;;;;;;5091038;28;20551;-66
2022/10/19 04:47:10;;;;;;;10.93;3.03;;;;;;;;;;5090958;28;20056;-66
2022/10/19 04:49:40;;;;;;;6.20;2.72;;;;;;;;;;5090586;28;20188;-66
2022/10/19 04:52:11;;;;;;;8.02;3.22;;;;;;;;;;5056955;28;20067;-66
2022/10/19 04:54:42;;;;;;;6.53;2.70;;;;;;;;;;5040665;28;20519;-66
2022/10/19 04:57:12;;;;;;;8.10;2.92;;;;;;;;;;5101807;28;20052;-66
2022/10/19 04:59:42;;;;;;;8.05;3.05;;;;;;;;;;5028749;28;20531;-66
2022/10/19 05:02:11;;;;;;;7.35;3.33;;;;;;;;;;5044104;28;20058;-66
2022/10/19 05:04:41;;;;;;;6.53;2.67;;;;;;;;;;5113124;28;20051;-66
2022/10/19 05:07:13;;;;;;;7.63;3.03;;;;;;;;;;5112048;28;20043;-66
2022/10/19 05:09:43;;;;;;;5.40;2.55;;;;;;;;;;5094011;28;20450;-67
2022/10/19 05:12:13;;;;;;;8.25;2.33;;;;;;;;;;5113316;28;20035;-66
2022/10/19 05:14:43;;;;;;;10.35;2.92;;;;;;;;;;5070068;28;20049;-66
2022/10/19 05:17:13;;;;;;;5.43;2.65;;;;;;;;;;5037430;28;20052;-66
2022/10/19 05:19:43;;;;;;;9.30;2.92;;;;;;;;;;5020426;28;20057;-66
2022/10/19 05:22:13;;;;;;;13.70;2.78;;;;;;;;;;5070069;28;20067;-66
2022/10/19 05:24:42;;;;;;;9.77;2.45;;;;;;;;;;5036699;28;20052;-66
2022/10/19 05:27:12;;;;;;;6.15;2.30;;;;;;;;;;5053517;28;20067;-66
2022/10/19 05:29:42;;;;;;;10.68;2.45;;;;;;;;;;5053194;28;20544;-66
2022/10/19 05:32:13;;;;;;;10.20;2.33;;;;;;;;;;5069754;28;20044;-66
2022/10/19 05:34:43;;;;;;;8.07;2.10;;;;;;;;;;5036667;28;20052;-66
2022/10/19 05:37:12;;;;;;;11.43;2.55;;;;;;;;;;5036087;28;20059;-66
2022/10/19 05:39:42;;;;;;;7.40;2.38;;;;;;;;;;5069887;28;20064;-66
2022/10/19 05:42:13;;;;;;;6.85;2.15;;;;;;;;;;5069971;28;20055;-66
2022/10/19 05:44:43;;;;;;;12.50;2.30;;;;;;;;;;5020818;28;20056;-66
2022/10/19 05:47:13;;;;;;;7.95;2.70;;;;;;;;;;5056857;28;20483;-66
2022/10/19 05:49:42;;;;;;;8.80;3.00;;;;;;;;;;5039725;28;20063;-66
2022/10/19 05:52:12;;;;;;;9.35;2.53;;;;;;;;;;5089682;28;20066;-66
2022/10/19 05:54:42;;;;;;;9.48;2.47;;;;;;;;;;5089887;28;20048;-66
2022/10/19 05:57:12;;;;;;;5.35;2.33;;;;;;;;;;5033084;28;20060;-66
2022/10/19 05:59:43;;;;;;;4.70;2.10;;;;;;;;;;5049645;28;20060;-67
2022/10/19 06:02:13;;;;;;;5.38;2.22;;;;;;;;;;5016314;28;20510;-66
2022/10/19 06:04:43;;;;;;;5.28;2.15;;;;;;;;;;5049388;28;20064;-67
2022/10/19 06:07:13;;;;;;;7.50;2.35;;;;;;;;;;5049459;28;20053;-66
2022/10/19 06:09:44;;;;;;;4.90;2.33;;;;;;;;;;5049470;28;20056;-66
2022/10/19 06:12:15;;;;;;;4.60;2.28;;;;;;;;;;5048931;28;20067;-66
2022/10/19 06:14:50;;;;;;;5.20;2.28;;;;;;;;;;5016105;28;20045;-66
2022/10/19 06:17:21;;;;;;;7.50;2.50;;;;;;;;;;5048999;28;20060;-66
2022/10/19 06:19:50;;;;;;;6.75;2.05;;;;;;;;;;5049312;28;20194;-66
2022/10/19 06:22:20;;;;;;;6.20;2.20;;;;;;;;;;5049273;28;20437;-66
2022/10/19 06:24:50;;;;;;;7.13;2.40;;;;;;;;;;5059298;28;20065;-66
2022/10/19 06:27:20;;;;;;;6.07;2.83;;;;;;;;;;5068975;28;20060;-66
2022/10/19 06:29:50;;;;;;;9.05;2.50;;;;;;;;;;5069207;28;20056;-66
2022/10/19 06:32:20;;;;;;;6.55;2.92;;;;;;;;;;5069247;28;20052;-66
2022/10/19 06:34:50;;;;;;;8.40;2.70;;;;;;;;;;5010740;28;20053;-66
2022/10/19 06:37:24;;;;;;;8.90;2.78;;;;;;;;;;5049375;28;20489;-66
2022/10/19 06:39:54;;;;;;;5.50;2.67;;;;;;;;;;5049362;28;20421;-66
2022/10/19 06:42:25;;;;;;;5.00;2.20;;;;;;;;;;5049171;28;20057;-66
2022/10/19 06:44:56;;;;;;;16.60;3.15;;;;;;;;;;5048727;28;20061;-66
2022/10/19 06:47:30;;;;;;;10.05;3.53;;;;;;;;;;5048971;28;20514;-66
2022/10/19 06:50:01;;;;;;;13.05;2.72;;;;;;;;;;5064134;28;20060;-67
2022/10/19 06:52:32;;;;;;;7.70;2.90;;;;;;;;;;5072947;28;20059;-66
2022/10/19 06:55:03;;;;;;;;;;;;;;;;;;5084211;28;20084;-66
2022/10/19 06:57:33;;;;;;;6.65;2.63;;;;;;;;;;5042564;28;19920;-67
2022/10/19 07:00:05;;;;;;;8.13;2.53;;;;;;;;;;5093214;28;20043;-67
2022/10/19 07:02:37;;;;;;;6.70;2.55;;;;;;;;;;5042590;28;20055;-67
2022/10/19 07:05:08;;;;;;;6.40;3.08;;;;;;;;;;5096408;28;20047;-66
2022/10/19 07:07:39;;;;;;;11.10;2.85;;;;;;;;;;5115799;28;20051;-67
2022/10/19 07:10:09;;;;;;;10.25;2.58;;;;;;;;;;5115657;28;20031;-66
2022/10/19 07:12:39;;;;;;;8.52;3.40;;;;;;;;;;5096485;28;20060;-66
2022/10/19 07:15:09;;;;;;;9.50;3.00;;;;;;;;;;5115610;28;20399;-67
2022/10/19 07:17:39;;;;;;;7.55;3.13;;;;;;;;;;5115808;28;20043;-67
2022/10/19 07:20:10;;;;;;;9.07;2.35;;;;;;;;;;5115403;28;20052;-67
2022/10/19 07:22:40;;;;;;;9.00;3.13;;;;;;;;;;5079326;28;20059;-68
2022/10/19 07:25:10;;;;;;;7.07;2.70;;;;;;;;;;5080426;28;20410;-67
2022/10/19 07:27:40;;;;;;;8.90;3.25;;;;;;;;;;5115277;28;20044;-67
2022/10/19 07:30:11;;;;;;;14.90;3.22;;;;;;;;;;5115149;28;20070;-67
2022/10/19 07:32:41;;;;;;;10.73;3.15;;;;;;;;;;5113181;28;20052;-67
2022/10/19 07:35:15;;;;;;;8.95;2.88;;;;;;;;;;5092163;28;20059;-67
2022/10/19 07:37:45;;;;;;;26.77;6.15;;;;;;;;;;5092448;28;20052;-68
2022/10/19 07:40:15;;;;;;;23.05;6.35;;;;;;;;;;5092305;28;20060;-67
2022/10/19 07:42:45;;;;;;;24.63;6.55;;;;;;;;;;5092437;28;20048;-67
2022/10/19 07:45:15;;;;;;;32.00;6.65;;;;;;;;;;5092159;28;20062;-67
2022/10/19 07:47:45;;;;;;;32.63;7.97;;;;;;;;;;5058363;28;20523;-70
2022/10/19 07:50:15;;;;;;;26.48;8.18;;;;;;;;;;5075116;28;20060;-67
2022/10/19 07:52:45;;;;;;;29.10;7.45;;;;;;;;;;5092057;28;20403;-67
2022/10/19 07:55:16;;;;;;;25.67;7.63;;;;;;;;;;5091961;28;20048;-67
2022/10/19 07:57:49;;;;;;;23.83;6.47;;;;;;;;;;5092155;28;20511;-67
2022/10/19 08:00:20;;;;;;;47.35;19.85;;;;;;;;;;5091824;28;20411;-67
2022/10/19 08:02:50;;;;;;;22.92;7.82;;;;;;;;;;5035072;28;20045;-67
2022/10/19 08:05:40;;;;;;;19.60;6.93;;;;;;;;;;5051384;28;20394;-67
2022/10/19 08:08:10;;;;;;;48.13;17.27;;;;;;;;;;5018105;28;20064;-67
2022/10/19 08:10:40;;;;;;;36.53;10.68;;;;;;;;;;5051448;28;20161;-67
2022/10/19 08:13:10;;;;;;;31.65;9.27;;;;;;;;;;5060140;28;20519;-67
2022/10/19 08:15:40;;;;;;;40.03;10.15;;;;;;;;;;5074409;28;20059;-67
2022/10/19 08:18:10;;;;;;;39.55;10.50;;;;;;;;;;5091688;28;20059;-67
2022/10/19 08:20:41;;;;;;;34.50;9.20;;;;;;;;;;5091426;28;20059;-68
2022/10/19 08:23:11;;;;;;;38.35;10.13;;;;;;;;;;5074977;28;20059;-67
2022/10/19 08:25:41;;;;;;;32.90;9.38;;;;;;;;;;5091472;28;20048;-67
2022/10/19 08:28:11;;;;;;;36.90;10.07;;;;;;;;;;5050933;28;20065;-67
2022/10/19 08:30:42;;;;;;;42.70;10.27;;;;;;;;;;5051119;28;20060;-68
2022/10/19 08:33:14;;;;;;;32.55;9.95;;;;;;;;;;5050590;28;20056;-66
2022/10/19 08:35:44;;;;;;;30.67;9.00;;;;;;;;;;5051001;28;20059;-67
2022/10/19 08:38:14;;;;;;;28.80;9.15;;;;;;;;;;5034337;28;20061;-67
2022/10/19 08:40:45;;;;;;;30.17;8.68;;;;;;;;;;5075498;28;20075;-67
2022/10/19 08:43:39;;;;;;;26.92;8.20;;;;;;;;;;5091147;28;20408;-67
2022/10/19 08:46:12;;;;;;;29.70;8.27;;;;;;;;;;5057657;28;20067;-67
2022/10/19 08:48:43;;;;;;;26.15;7.05;;;;;;;;;;5091227;28;20048;-67
2022/10/19 08:51:14;;;;;;;22.98;7.25;;;;;;;;;;5091026;28;20056;-67
2022/10/19 08:53:55;;;;;;;19.85;6.43;;;;;;;;;;5057363;28;20078;-67
2022/10/19 08:56:33;;;;;;;19.30;6.97;;;;;;;;;;5091011;28;20040;-68
2022/10/19 08:59:46;;;;;;;20.60;6.38;;;;;;;;;;5090739;28;20067;-67
2022/10/19 09:02:32;;;;;;;18.80;5.90;;;;;;;;;;5090741;28;20051;-67
2022/10/19 09:05:20;;;;;;;16.23;5.78;;;;;;;;;;5094844;28;20047;-67
2022/10/19 09:07:53;;;;;;;24.88;6.07;;;;;;;;;;5077367;28;20059;-67
2022/10/19 09:10:28;;;;;;;18.73;4.93;;;;;;;;;;5111653;28;20040;-67
2022/10/19 09:13:04;;;;;;;18.83;5.65;;;;;;;;;;5112964;28;20047;-67
2022/10/19 09:15:49;;;;;;;19.38;6.13;;;;;;;;;;5113442;28;20039;-66
2022/10/19 09:18:23;;;;;;;;;;;;;;;;;;5113740;28;20059;-67
2022/10/19 09:21:09;;;;;;;16.83;5.63;;;;;;;;;;5113026;28;19926;-67
2022/10/19 09:23:45;;;;;;;17.38;5.55;;;;;;;;;;5113275;28;20047;-67
2022/10/19 09:26:18;;;;;;;17.05;5.00;;;;;;;;;;5112871;28;20047;-67
2022/10/19 09:29:14;;;;;;;11.48;4.15;;;;;;;;;;5113154;28;20043;-67
2022/10/19 09:31:45;;;;;;;13.00;3.70;;;;;;;;;;5030089;28;20061;-67
2022/10/19 09:34:18;;;;;;;10.85;3.83;;;;;;;;;;4996868;28;20872;-66
2022/10/19 09:36:57;;;;;;;13.68;4.20;;;;;;;;;;5030120;28;20119;-67
2022/10/19 09:39:30;;;;;;;11.05;4.65;;;;;;;;;;4996947;28;20053;-67
2022/10/19 09:42:21;;;;;;;11.57;4.32;;;;;;;;;;4996163;28;20056;-67
2022/10/19 09:44:54;;;;;;;13.80;4.55;;;;;;;;;;5029878;28;20037;-67
2022/10/19 09:47:39;;;;;;;12.27;4.22;;;;;;;;;;5029853;28;20057;-67
2022/10/19 09:50:20;;;;;;;12.05;4.32;;;;;;;;;;5029905;28;20067;-67
2022/10/19 09:52:58;;;;;;;12.10;3.75;;;;;;;;;;5029647;28;20058;-67
2022/10/19 09:55:42;;;;;;;12.10;3.80;;;;;;;;;;5029799;28;20045;-67
2022/10/19 09:58:13;;;;;;;10.55;3.55;;;;;;;;;;5029828;28;20664;-66
2022/10/19 10:00:53;;;;;;;9.82;3.72;;;;;;;;;;4997232;28;20497;-67
2022/10/19 10:03:42;;;;;;;9.60;3.55;;;;;;;;;;5029553;28;20061;-67
2022/10/19 10:06:16;;;;;;;10.55;3.67;;;;;;;;;;4996515;28;20068;-67
2022/10/19 10:08:49;;;;;;;9.20;3.40;;;;;;;;;;5067957;28;20062;-67
2022/10/19 10:11:28;;;;;;;12.45;4.18;;;;;;;;;;5089381;28;20044;-67
2022/10/19 10:14:04;;;;;;;10.68;4.13;;;;;;;;;;5089575;28;20063;-68
2022/10/19 10:16:37;;;;;;;10.80;4.18;;;;;;;;;;5089572;28;20059;-67
2022/10/19 10:19:11;;;;;;;11.18;3.72;;;;;;;;;;5089679;28;20059;-68
2022/10/19 10:21:51;;;;;;;8.55;3.33;;;;;;;;;;5056342;28;20052;-67
2022/10/19 10:24:29;;;;;;;8.38;3.50;;;;;;;;;;5060730;28;20056;-67
2022/10/19 10:27:05;;;;;;;8.60;3.25;;;;;;;;;;5093671;28;20044;-68
2022/10/19 10:29:38;;;;;;;8.57;3.53;;;;;;;;;;5073248;28;20119;-68
2022/10/19 10:32:19;;;;;;;8.60;3.50;;;;;;;;;;5023497;28;20475;-68
2022/10/19 10:35:15;;;;;;;10.63;3.88;;;;;;;;;;5039854;28;20055;-68
2022/10/19 10:37:46;;;;;;;9.77;4.03;;;;;;;;;;5073397;28;20044;-68
2022/10/19 10:40:50;;;;;;;8.73;3.28;;;;;;;;;;5073136;28;20123;-68
2022/10/19 10:43:27;;;;;;;10.63;4.30;;;;;;;;;;4942145;28;20178;-68
2022/10/19 10:46:13;;;;;;;7.28;2.97;;;;;;;;;;4974540;28;20055;-69
2022/10/19 10:48:57;;;;;;;8.70;3.67;;;;;;;;;;4981961;28;20054;-68
2022/10/19 10:51:55;;;;;;;9.57;3.75;;;;;;;;;;4993723;28;20150;-68
2022/10/19 10:54:32;;;;;;;;;;;;;;;;;;4974454;28;20055;-68
2022/10/19 10:57:10;;;;;;;11.20;3.85;;;;;;;;;;4974076;28;19922;-69
2022/10/19 11:00:10;;;;;;;6.95;2.88;;;;;;;;;;4974137;28;20051;-69
2022/10/19 11:02:46;;;;;;;7.57;3.22;;;;;;;;;;4957998;28;20055;-69
2022/10/19 11:05:41;;;;;;;9.45;3.50;;;;;;;;;;4957174;28;20062;-69
2022/10/19 11:08:28;;;;;;;6.88;3.05;;;;;;;;;;4962667;28;20065;-70
2022/10/19 11:11:21;;;;;;;7.07;3.20;;;;;;;;;;4976839;28;20050;-68
2022/10/19 11:14:01;;;;;;;6.13;2.85;;;;;;;;;;4993209;28;20426;-69
2022/10/19 11:16:38;;;;;;;8.05;3.67;;;;;;;;;;4993453;28;20588;-69
2022/10/19 11:19:26;;;;;;;4.55;2.08;;;;;;;;;;4996988;28;20069;-68
2022/10/19 11:22:22;;;;;;;7.13;3.28;;;;;;;;;;4999647;28;20057;-69
2022/10/19 11:25:19;;;;;;;4.88;2.33;;;;;;;;;;4973275;28;20526;-68
2022/10/19 11:28:23;;;;;;;4.05;2.00;;;;;;;;;;4957409;28;20051;-69
2022/10/19 11:31:06;;;;;;;5.72;2.35;;;;;;;;;;4903027;29;20067;-69
2022/10/19 11:33:47;;;;;;;3.97;1.90;;;;;;;;;;4899338;29;20517;-69
2022/10/19 11:36:57;;;;;;;6.13;2.47;;;;;;;;;;4915920;29;20075;-70
2022/10/19 11:39:36;;;;;;;5.07;2.40;;;;;;;;;;4916042;29;20048;-70
2022/10/19 11:42:18;;;;;;;5.32;1.92;;;;;;;;;;4925141;29;20062;-71
2022/10/19 11:44:53;;;;;;;4.72;2.17;;;;;;;;;;4918895;29;20063;-71
2022/10/19 11:47:58;;;;;;;4.82;2.55;;;;;;;;;;4966513;28;20052;-70
2022/10/19 11:50:40;;;;;;;4.82;2.15;;;;;;;;;;4896782;29;20509;-70
2022/10/19 11:53:28;;;;;;;6.47;2.35;;;;;;;;;;4896779;29;20528;-71
2022/10/19 11:56:27;;;;;;;8.60;5.05;;;;;;;;;;4896605;29;20160;-71
2022/10/19 11:59:17;;;;;;;5.82;3.08;;;;;;;;;;4883290;29;20409;-70
2022/10/19 12:01:53;;;;;;;6.53;2.53;;;;;;;;;;4896027;29;20495;-75
2022/10/19 12:04:49;;;;;;;6.60;3.35;;;;;;;;;;4934436;29;20056;-71
2022/10/19 12:07:52;;;;;;;6.35;3.67;;;;;;;;;;4940876;28;20502;-73
2022/10/19 12:11:15;;;;;;;10.30;2.45;;;;;;;;;;4905938;29;20047;-73
2022/10/19 12:14:05;;;;;;;3.75;1.88;;;;;;;;;;4934013;29;20075;-70
2022/10/19 12:16:42;;;;;;;7.38;2.70;;;;;;;;;;4934219;29;20083;-71
2022/10/19 12:19:30;;;;;;;7.10;2.92;;;;;;;;;;4934067;29;20056;-69
2022/10/19 12:22:03;;;;;;;7.40;2.60;;;;;;;;;;4914794;29;20048;-71
2022/10/19 12:24:35;;;;;;;5.45;2.65;;;;;;;;;;4914968;29;20060;-70
2022/10/19 12:27:09;;;;;;;6.20;2.40;;;;;;;;;;4905342;29;20064;-75
2022/10/19 12:29:43;;;;;;;5.70;2.83;;;;;;;;;;4896093;29;20059;-72
2022/10/19 12:32:16;;;;;;;6.80;2.90;;;;;;;;;;4880406;29;20053;-73
2022/10/19 12:35:12;;;;;;;8.95;3.47;;;;;;;;;;4858400;29;20506;-69
2022/10/19 12:37:52;;;;;;;4.88;2.55;;;;;;;;;;4843276;29;20068;-73
2022/10/19 12:40:53;;;;;;;4.85;2.70;;;;;;;;;;4828107;29;20057;-70
2022/10/19 12:43:26;;;;;;;8.07;3.22;;;;;;;;;;4881188;29;20053;-74
2022/10/19 12:46:20;;;;;;;8.23;3.00;;;;;;;;;;4913702;29;20057;-70
2022/10/19 12:49:39;;;;;;;7.07;3.78;;;;;;;;;;4991608;28;20050;-70
2022/10/19 12:52:10;;;;;;;8.00;3.20;;;;;;;;;;4908102;29;20068;-73
2022/10/19 12:54:42;;;;;;;8.30;3.08;;;;;;;;;;4914392;29;20047;-73
2022/10/19 12:57:29;;;;;;;17.35;7.00;;;;;;;;;;4914244;29;20525;-71
2022/10/19 13:00:06;;;;;;;6.57;3.42;;;;;;;;;;4938477;28;20059;-71
2022/10/19 13:02:39;;;;;;;6.80;3.05;;;;;;;;;;4952501;28;20055;-73
2022/10/19 13:05:20;;;;;;;4.30;2.22;;;;;;;;;;4904109;29;20051;-72
2022/10/19 13:07:51;;;;;;;9.52;3.35;;;;;;;;;;4952389;28;20056;-72
2022/10/19 13:10:25;;;;;;;14.80;7.80;;;;;;;;;;4952282;28;20547;-71
2022/10/19 13:12:55;;;;;;;12.70;6.68;;;;;;;;;;4952372;28;20051;-73
2022/10/19 13:15:37;;;;;;;7.15;3.70;;;;;;;;;;4952286;28;20055;-73
2022/10/19 13:18:15;;;;;;;8.90;4.32;;;;;;;;;;4952155;28;20051;-76
2022/10/19 13:20:53;;;;;;;5.50;2.25;;;;;;;;;;4932776;29;20531;-73
2022/10/19 13:23:26;;;;;;;3.95;2.28;;;;;;;;;;4932763;29;20052;-74
2022/10/19 13:26:23;;;;;;;4.78;2.25;;;;;;;;;;4885952;29;20076;-73
2022/10/19 13:28:55;;;;;;;3.13;2.00;;;;;;;;;;4938539;28;20057;-72
2022/10/19 13:31:30;;;;;;;2.97;1.63;;;;;;;;;;4970889;28;20066;-69
2022/10/19 13:34:00;;;;;;;3.03;1.63;;;;;;;;;;4971310;28;20062;-72
2022/10/19 13:36:31;;;;;;;3.05;1.85;;;;;;;;;;4938893;28;20549;-73
2022/10/19 13:39:04;;;;;;;4.90;1.45;;;;;;;;;;4939055;28;20055;-74
2022/10/19 13:41:36;;;;;;;5.28;1.70;;;;;;;;;;4970988;28;20063;-69
2022/10/19 13:44:18;;;;;;;2.15;1.60;;;;;;;;;;4971200;28;20051;-70
2022/10/19 13:47:13;;;;;;;2.90;1.52;;;;;;;;;;4970847;28;20535;-71
2022/10/19 13:49:57;;;;;;;3.05;1.92;;;;;;;;;;4938958;28;20574;-71
2022/10/19 13:52:36;;;;;;;5.00;2.08;;;;;;;;;;4984788;28;20054;-71
2022/10/19 13:55:34;;;;;;;3.22;1.40;;;;;;;;;;4990237;28;20057;-71
2022/10/19 13:58:48;;;;;;;2.65;1.63;;;;;;;;;;4990205;28;20050;-71
2022/10/19 14:01:34;;;;;;;5.97;2.13;;;;;;;;;;4974303;28;20511;-69
2022/10/19 14:04:38;;;;;;;8.55;2.58;;;;;;;;;;4942130;28;20061;-69
2022/10/19 14:07:27;;;;;;;4.45;2.75;;;;;;;;;;5065622;28;20151;-72
2022/10/19 14:10:01;;;;;;;5.60;2.42;;;;;;;;;;5104610;28;20048;-70
2022/10/19 14:12:36;;;;;;;3.72;1.95;;;;;;;;;;5112291;28;20047;-71
2022/10/19 14:15:29;;;;;;;5.20;2.20;;;;;;;;;;5077952;28;20499;-72
2022/10/19 14:18:00;;;;;;;3.65;1.90;;;;;;;;;;5112591;28;20495;-72
2022/10/19 14:20:38;;;;;;;4.95;2.03;;;;;;;;;;5108868;28;20046;-71
2022/10/19 14:23:19;;;;;;;5.03;2.00;;;;;;;;;;5112158;28;20043;-70
2022/10/19 14:26:03;;;;;;;5.57;1.60;;;;;;;;;;5076390;28;20058;-70
2022/10/19 14:28:42;;;;;;;3.50;1.90;;;;;;;;;;5076330;28;20051;-71
2022/10/19 14:31:21;;;;;;;5.68;2.00;;;;;;;;;;5112331;28;20052;-70
2022/10/19 14:33:57;;;;;;;4.07;1.88;;;;;;;;;;5060910;28;20054;-70
2022/10/19 14:36:36;;;;;;;3.58;1.95;;;;;;;;;;5027422;28;20494;-71
2022/10/19 14:39:07;;;;;;;3.80;1.90;;;;;;;;;;5112249;28;20050;-71
2022/10/19 14:41:37;;;;;;;4.85;1.85;;;;;;;;;;5089359;28;20047;-71
2022/10/19 14:44:36;;;;;;;7.40;2.13;;;;;;;;;;5089392;28;20526;-70
2022/10/19 14:47:15;;;;;;;7.32;1.85;;;;;;;;;;5052126;28;20057;-72
2022/10/19 14:49:45;;;;;;;4.75;1.92;;;;;;;;;;5035993;28;20071;-70
2022/10/19 14:52:31;;;;;;;3.00;1.50;;;;;;;;;;5069166;28;20168;-72
2022/10/19 14:55:13;;;;;;;3.78;2.20;;;;;;;;;;5028967;28;20549;-74
2022/10/19 14:57:51;;;;;;;2.20;1.25;;;;;;;;;;5029082;28;20065;-73
2022/10/19 15:00:23;;;;;;;4.05;1.77;;;;;;;;;;4979921;28;20449;-73
2022/10/19 15:03:01;;;;;;;3.90;2.10;;;;;;;;;;5012876;28;20061;-73
2022/10/19 15:05:39;;;;;;;2.92;1.70;;;;;;;;;;4996959;28;20061;-72
2022/10/19 15:08:22;;;;;;;4.10;1.65;;;;;;;;;;4995284;28;20421;-69
2022/10/19 15:10:52;;;;;;;2.55;1.55;;;;;;;;;;5015919;28;20072;-69
2022/10/19 15:13:40;;;;;;;3.10;1.50;;;;;;;;;;5047382;28;20394;-70
2022/10/19 15:16:38;;;;;;;3.17;1.58;;;;;;;;;;5052546;28;20045;-75
2022/10/19 15:19:35;;;;;;;2.30;1.40;;;;;;;;;;5032337;28;20065;-71
2022/10/19 15:22:14;;;;;;;3.55;1.42;;;;;;;;;;5031976;28;20060;-73
2022/10/19 15:25:18;;;;;;;4.05;1.55;;;;;;;;;;5016100;28;20056;-69
2022/10/19 15:27:49;;;;;;;3.10;1.48;;;;;;;;;;4960562;28;20066;-68
2022/10/19 15:30:24;;;;;;;;;;;;;;;;;;4993457;28;20061;-68
2022/10/19 15:33:12;;;;;;;3.60;1.60;;;;;;;;;;4971192;28;19924;-71
2022/10/19 15:35:44;;;;;;;2.60;1.42;;;;;;;;;;5018654;28;20045;-70